Time;durP1;ratioP1;P1;durP2;ratioP2;P2;SDS_P1;SDS_P2;PMS_P1;PMS_P2;Temp;Humidity;BMP_temperature;BMP_pressure;BME280_temperature;BME280_humidity;BME280_pressure;Samples;Min_cycle;Max_cycle;Signal;HPM_P1;HPM_P2
2022/07/22 00:00:14;;;;;;;8.50;4.72;;;;;;;18.01;76.96;95080.03;5059017;28;20035;-69
2022/07/22 00:02:41;;;;;;;11.63;5.22;;;;;;;17.98;75.85;95080.56;5057364;28;20129;-69
2022/07/22 00:05:10;;;;;;;14.35;6.43;;;;;;;17.92;75.85;95081.66;5043566;28;20076;-69
2022/07/22 00:07:38;;;;;;;14.98;5.85;;;;;;;17.78;75.45;95066.41;5064076;28;20036;-69
2022/07/22 00:10:07;;;;;;;8.77;4.75;;;;;;;17.76;75.44;95073.78;5057527;28;20040;-69
2022/07/22 00:12:34;;;;;;;8.38;4.95;;;;;;;17.69;75.17;95073.28;5064897;28;20052;-69
2022/07/22 00:15:01;;;;;;;8.10;4.60;;;;;;;17.62;75.70;95072.78;5059114;28;20047;-68
2022/07/22 00:17:28;;;;;;;10.90;6.35;;;;;;;17.61;75.09;95073.88;5057330;28;20052;-67
2022/07/22 00:19:55;;;;;;;11.13;4.63;;;;;;;17.52;75.27;95078.06;5055945;28;20037;-67
2022/07/22 00:22:22;;;;;;;11.23;5.13;;;;;;;17.51;75.45;95073.88;5060826;28;21478;-67
2022/07/22 00:24:48;;;;;;;8.98;4.88;;;;;;;17.52;75.88;95078.88;5057099;28;20710;-68
2022/07/22 00:27:15;;;;;;;8.63;5.20;;;;;;;17.39;76.14;95077.63;5057802;28;20036;-68
2022/07/22 00:29:42;;;;;;;10.55;5.10;;;;;;;17.28;76.83;95073.41;5059972;28;20044;-68
2022/07/22 00:32:09;;;;;;;9.00;5.55;;;;;;;17.35;77.45;95089.72;5024815;28;20737;-68
2022/07/22 00:34:36;;;;;;;6.72;4.93;;;;;;;17.38;76.86;95083.91;5060378;28;20048;-68
2022/07/22 00:37:04;;;;;;;7.57;6.03;;;;;;;17.37;77.24;95082.34;5057265;28;20040;-68
2022/07/22 00:39:32;;;;;;;9.32;5.63;;;;;;;17.32;78.00;95086.81;5061816;28;20079;-68
2022/07/22 00:41:59;;;;;;;12.38;6.15;;;;;;;17.33;77.85;95086.56;5074685;28;20131;-69
2022/07/22 00:44:26;;;;;;;13.82;6.30;;;;;;;17.34;77.76;95096.06;5060663;28;20120;-68
2022/07/22 00:46:53;;;;;;;15.48;5.82;;;;;;;17.27;78.38;95082.38;5038995;28;20040;-68
2022/07/22 00:49:20;;;;;;;9.57;6.15;;;;;;;17.24;78.32;95088.16;5061669;28;20429;-68
2022/07/22 00:51:47;;;;;;;10.73;6.13;;;;;;;17.09;78.91;95069.78;5057945;28;20625;-68
2022/07/22 00:54:14;;;;;;;8.32;5.25;;;;;;;17.08;79.39;95083.97;5058213;28;20056;-68
2022/07/22 00:56:42;;;;;;;12.80;6.57;;;;;;;16.94;79.94;95081.91;5057391;28;20059;-68
2022/07/22 00:59:12;;;;;;;8.23;5.50;;;;;;;16.80;80.81;95086.88;5038870;28;20519;-68
2022/07/22 01:01:39;;;;;;;9.60;6.07;;;;;;;16.71;81.80;95079.75;5058208;28;20059;-68
2022/07/22 01:04:06;;;;;;;19.70;6.60;;;;;;;16.60;82.39;95085.03;5040284;28;20048;-68
2022/07/22 01:06:33;;;;;;;8.20;6.15;;;;;;;16.57;82.60;95075.03;5061117;28;20048;-68
2022/07/22 01:09:00;;;;;;;10.27;5.85;;;;;;;16.66;82.26;95071.88;5058171;28;20040;-68
2022/07/22 01:11:27;;;;;;;12.05;6.07;;;;;;;16.71;82.24;95069.22;5042875;28;20040;-69
2022/07/22 01:13:55;;;;;;;11.82;7.03;;;;;;;16.68;82.52;95069.78;5059860;28;20051;-68
2022/07/22 01:16:25;;;;;;;9.45;6.22;;;;;;;16.64;82.71;95059.00;5060612;28;20609;-69
2022/07/22 01:18:53;;;;;;;14.52;6.45;;;;;;;16.68;82.69;95056.63;5057039;28;20043;-68
2022/07/22 01:21:21;;;;;;;16.45;7.97;;;;;;;16.69;82.40;95060.81;5059512;28;20064;-69
2022/07/22 01:23:48;;;;;;;16.55;6.45;;;;;;;16.62;81.85;95054.00;5046027;28;20128;-70
2022/07/22 01:26:15;;;;;;;10.77;6.47;;;;;;;16.70;82.49;95068.44;5061518;28;20515;-69
2022/07/22 01:28:43;;;;;;;10.48;6.57;;;;;;;16.72;82.98;95082.13;5042313;28;20598;-68
2022/07/22 01:31:10;;;;;;;17.75;6.38;;;;;;;16.72;83.05;95066.34;5061374;28;20098;-69
2022/07/22 01:33:37;;;;;;;8.05;5.72;;;;;;;16.71;83.29;95071.88;5043723;28;20102;-68
2022/07/22 01:36:05;;;;;;;12.38;5.70;;;;;;;16.65;83.38;95075.56;5060464;28;20048;-68
2022/07/22 01:38:32;;;;;;;9.88;5.75;;;;;;;16.57;83.26;95059.25;5042275;28;20063;-68
2022/07/22 01:40:59;;;;;;;10.70;6.00;;;;;;;16.62;83.27;95067.16;5044118;28;20059;-69
2022/07/22 01:43:27;;;;;;;8.70;5.90;;;;;;;16.63;83.22;95068.69;5043921;28;20051;-68
2022/07/22 01:45:54;;;;;;;8.77;5.68;;;;;;;16.68;82.84;95069.78;5058201;28;20043;-68
2022/07/22 01:48:22;;;;;;;17.17;6.25;;;;;;;16.66;82.36;95072.66;5062901;28;20099;-68
2022/07/22 01:50:50;;;;;;;9.30;6.43;;;;;;;16.61;84.23;95075.28;5040325;28;20670;-68
2022/07/22 01:53:17;;;;;;;13.98;6.72;;;;;;;16.68;84.27;95069.78;5042956;28;20057;-69
2022/07/22 01:55:46;;;;;;;14.07;5.90;;;;;;;16.53;84.48;95063.47;5055639;28;20048;-68
2022/07/22 01:58:13;;;;;;;12.48;6.43;;;;;;;16.61;85.39;95070.81;5074583;28;20462;-68
2022/07/22 02:00:41;;;;;;;11.68;6.38;;;;;;;16.63;85.06;95068.69;5038816;28;20055;-67
2022/07/22 02:03:10;;;;;;;9.73;5.97;;;;;;;16.61;84.59;95076.06;5039264;28;20056;-68
2022/07/22 02:05:38;;;;;;;10.93;7.15;;;;;;;16.51;84.73;95076.09;5059198;28;20134;-68
2022/07/22 02:08:16;;;;;;;7.93;6.28;;;;;;;16.29;84.49;95057.13;5038873;28;20056;-69
2022/07/22 02:11:18;;;;;;;11.60;6.57;;;;;;;16.43;85.05;95084.47;5043321;28;20064;-68
2022/07/22 02:13:56;;;;;;;11.10;6.05;;;;;;;16.46;85.58;95086.59;5038302;28;21162;-68
2022/07/22 02:16:25;;;;;;;11.13;6.65;;;;;;;16.31;87.31;95076.03;5039674;28;20052;-68
2022/07/22 02:18:53;;;;;;;10.90;6.47;;;;;;;16.30;87.03;95077.91;5038255;28;20044;-68
2022/07/22 02:21:21;;;;;;;12.38;6.43;;;;;;;16.27;87.84;95082.88;5056349;28;20059;-68
2022/07/22 02:23:50;;;;;;;26.85;7.53;;;;;;;16.30;87.82;95087.63;5054940;28;20102;-68
2022/07/22 02:26:17;;;;;;;16.60;7.80;;;;;;;16.33;87.69;95087.09;5039692;28;20041;-70
2022/07/22 02:28:44;;;;;;;14.85;8.25;;;;;;;16.32;87.43;95093.41;5059839;28;20131;-68
2022/07/22 02:31:11;;;;;;;13.35;7.55;;;;;;;16.24;87.84;95082.34;5043326;28;20044;-68
2022/07/22 02:33:38;;;;;;;16.90;8.02;;;;;;;16.24;88.55;95087.59;5037633;28;20048;-68
2022/07/22 02:36:07;;;;;;;11.38;7.88;;;;;;;16.17;89.98;95087.06;5041965;28;20441;-68
2022/07/22 02:38:37;;;;;;;18.25;7.97;;;;;;;16.10;90.42;95081.28;5038980;28;20600;-68
2022/07/22 02:41:04;;;;;;;12.52;9.32;;;;;;;16.06;90.08;95090.69;5040263;28;20051;-69
2022/07/22 02:43:33;;;;;;;13.80;8.15;;;;;;;15.97;90.33;95076.50;5039257;28;20036;-68
2022/07/22 02:46:00;;;;;;;13.23;8.13;;;;;;;15.86;91.23;95092.25;5038258;28;20667;-68
2022/07/22 02:48:27;;;;;;;15.68;7.95;;;;;;;15.81;92.63;95092.22;5038713;28;20036;-68
2022/07/22 02:50:54;;;;;;;11.70;7.68;;;;;;;15.77;94.02;95082.47;5037289;28;20051;-68
2022/07/22 02:53:24;;;;;;;12.57;8.10;;;;;;;15.65;94.32;95074.78;5041102;28;20130;-68
2022/07/22 02:55:51;;;;;;;11.35;7.68;;;;;;;15.73;94.46;95082.16;5037033;28;20044;-68
2022/07/22 02:58:18;;;;;;;11.45;8.18;;;;;;;15.73;94.30;95089.25;5057820;28;20056;-68
2022/07/22 03:00:46;;;;;;;15.07;8.18;;;;;;;15.75;94.28;95085.34;5021097;28;20051;-68
2022/07/22 03:03:13;;;;;;;13.35;8.38;;;;;;;15.79;93.98;95081.19;5056859;28;20762;-68
2022/07/22 03:05:40;;;;;;;13.82;8.30;;;;;;;15.74;93.26;95083.78;5055150;28;20732;-68
2022/07/22 03:08:19;;;;;;;12.88;7.60;;;;;;;15.63;93.30;95077.66;5059149;28;20111;-68
2022/07/22 03:10:45;;;;;;;15.10;6.97;;;;;;;15.59;93.32;95081.84;5036553;28;20043;-68
2022/07/22 03:13:13;;;;;;;17.75;8.48;;;;;;;15.66;92.50;95086.84;5023859;28;20048;-68
2022/07/22 03:15:40;;;;;;;10.82;7.80;;;;;;;15.64;92.61;95083.69;5054815;28;20032;-68
2022/07/22 03:18:07;;;;;;;14.02;7.93;;;;;;;15.65;92.70;95087.91;5056185;28;20041;-68
2022/07/22 03:20:34;;;;;;;9.20;6.97;;;;;;;15.62;92.53;95088.41;5034823;28;20118;-68
2022/07/22 03:23:01;;;;;;;8.98;7.35;;;;;;;15.61;93.15;95084.19;5055405;28;20040;-69
2022/07/22 03:25:30;;;;;;;16.02;7.22;;;;;;;15.57;93.25;95083.16;5055118;28;20048;-68
2022/07/22 03:27:58;;;;;;;16.85;7.93;;;;;;;15.64;93.51;95094.19;5036582;28;20048;-68
2022/07/22 03:30:25;;;;;;;13.07;7.05;;;;;;;15.58;93.89;95095.25;5057928;28;20656;-68
2022/07/22 03:32:52;;;;;;;12.00;7.75;;;;;;;15.54;94.03;95094.16;5037368;28;20131;-68
2022/07/22 03:35:21;;;;;;;13.13;7.47;;;;;;;15.56;93.74;95097.34;5073812;28;20533;-69
2022/07/22 03:37:48;;;;;;;10.00;7.40;;;;;;;15.53;94.08;95087.34;5036251;28;20131;-68
2022/07/22 03:40:17;;;;;;;15.23;7.95;;;;;;;15.56;93.99;95100.75;5057445;28;20052;-68
2022/07/22 03:42:44;;;;;;;15.23;8.85;;;;;;;15.57;93.98;95099.69;5036898;28;20052;-68
2022/07/22 03:45:13;;;;;;;22.20;8.60;;;;;;;15.63;93.86;95108.41;5039645;28;20040;-68
2022/07/22 03:47:41;;;;;;;15.48;8.68;;;;;;;15.63;93.96;95103.13;5038687;28;20052;-68
2022/07/22 03:50:08;;;;;;;17.60;8.43;;;;;;;15.64;94.18;95099.44;5040664;28;20493;-69
2022/07/22 03:52:35;;;;;;;11.13;7.90;;;;;;;15.74;93.82;95098.72;5037034;28;20049;-68
2022/07/22 03:55:06;;;;;;;14.20;8.27;;;;;;;15.82;93.68;95106.91;5034804;28;20137;-68
2022/07/22 03:57:34;;;;;;;14.48;7.20;;;;;;;15.89;93.30;95105.91;5037279;28;20045;-68
2022/07/22 04:00:22;;;;;;;21.42;8.13;;;;;;;16.00;92.85;95107.50;5070894;28;20079;-69
2022/07/22 04:02:49;;;;;;;19.00;7.85;;;;;;;16.07;92.66;95118.56;5038509;28;20049;-69
2022/07/22 04:05:36;;;;;;;9.55;7.88;;;;;;;16.14;92.91;95113.06;5054464;28;20088;-69
2022/07/22 04:08:03;;;;;;;8.98;6.65;;;;;;;16.27;91.94;95111.78;5039898;28;20147;-69
2022/07/22 04:10:30;;;;;;;13.85;8.02;;;;;;;16.41;91.17;95118.13;5070014;28;20032;-69
2022/07/22 04:12:58;;;;;;;14.60;8.20;;;;;;;16.48;90.42;95104.75;5040847;28;20071;-68
2022/07/22 04:15:37;;;;;;;10.45;7.85;;;;;;;16.74;89.59;95116.06;5034620;28;20053;-68
2022/07/22 04:18:04;;;;;;;25.10;7.88;;;;;;;16.89;88.89;95117.91;5037864;28;20098;-68
2022/07/22 04:20:31;;;;;;;9.38;6.65;;;;;;;17.04;88.25;95125.03;5038138;28;20122;-70
2022/07/22 04:23:17;;;;;;;12.60;6.90;;;;;;;17.19;88.11;95127.66;5062039;28;20177;-68
2022/07/22 04:25:51;;;;;;;12.10;6.65;;;;;;;17.37;86.94;95124.47;5037470;28;20120;-68
2022/07/22 04:28:18;;;;;;;10.63;7.00;;;;;;;17.54;86.32;95129.44;5040128;28;20044;-68
2022/07/22 04:30:45;;;;;;;10.63;6.80;;;;;;;17.66;85.39;95123.88;5039081;28;20040;-67
2022/07/22 04:33:12;;;;;;;8.95;6.90;;;;;;;17.86;84.59;95120.44;5062205;28;20037;-68
2022/07/22 04:35:38;;;;;;;13.73;6.07;;;;;;;18.05;83.29;95127.72;5074204;28;20071;-68
2022/07/22 04:38:16;;;;;;;11.80;6.15;;;;;;;18.23;81.84;95136.88;5042319;28;20056;-69
2022/07/22 04:40:53;;;;;;;14.05;7.03;;;;;;;18.39;80.21;95135.72;5039721;28;20037;-68
2022/07/22 04:43:22;;;;;;;9.25;5.95;;;;;;;18.47;80.03;95135.13;5072837;28;20079;-69
2022/07/22 04:45:55;;;;;;;20.65;6.75;;;;;;;18.61;79.54;95129.25;5059623;28;20127;-68
2022/07/22 04:48:25;;;;;;;12.18;6.38;;;;;;;18.76;78.68;95131.78;5044924;28;20052;-69
2022/07/22 04:50:53;;;;;;;9.52;6.38;;;;;;;18.91;78.06;95139.63;5043495;28;20052;-68
2022/07/22 04:53:19;;;;;;;11.45;6.82;;;;;;;19.02;78.44;95136.91;5035056;28;20057;-68
2022/07/22 04:56:07;;;;;;;15.18;7.65;;;;;;;19.13;78.88;95146.31;5033061;28;20128;-67
2022/07/22 04:58:34;;;;;;;11.43;7.00;;;;;;;19.28;77.18;95143.56;5021799;28;20052;-67
2022/07/22 05:01:02;;;;;;;11.25;7.40;;;;;;;19.36;77.88;95144.81;5035260;28;20045;-67
2022/07/22 05:03:29;;;;;;;10.52;6.63;;;;;;;19.36;78.70;95150.09;5031943;28;20850;-67
2022/07/22 05:05:56;;;;;;;10.63;6.90;;;;;;;19.44;78.72;95149.47;5036911;28;20095;-67
2022/07/22 05:08:32;;;;;;;11.18;7.65;;;;;;;19.51;77.20;95151.00;5015685;28;20187;-66
2022/07/22 05:10:59;;;;;;;16.73;6.50;;;;;;;19.37;76.84;95150.88;5031157;28;20064;-67
2022/07/22 05:13:26;;;;;;;13.00;7.30;;;;;;;19.42;76.43;95153.47;5046986;28;20033;-67
2022/07/22 05:15:53;;;;;;;13.63;7.10;;;;;;;19.41;76.34;95154.50;5034348;28;20083;-68
2022/07/22 05:18:20;;;;;;;11.65;7.20;;;;;;;19.52;75.49;95153.38;5030658;28;20041;-68
2022/07/22 05:20:47;;;;;;;12.80;7.22;;;;;;;19.57;76.98;95155.97;5029163;28;20433;-68
2022/07/22 05:23:14;;;;;;;21.83;8.07;;;;;;;19.59;77.23;95148.53;5030892;28;20048;-67
2022/07/22 05:25:40;;;;;;;20.98;8.10;;;;;;;19.74;76.79;95152.13;5032441;28;20038;-67
2022/07/22 05:28:07;;;;;;;31.65;8.40;;;;;;;19.80;77.36;95162.34;5036923;28;20041;-67
2022/07/22 05:30:38;;;;;;;24.77;8.63;;;;;;;19.88;76.87;95160.16;5029420;28;20698;-68
2022/07/22 05:33:06;;;;;;;26.83;8.98;;;;;;;20.07;76.28;95166.28;5016582;28;20522;-67
2022/07/22 05:35:56;;;;;;;15.15;8.35;;;;;;;19.95;76.60;95161.41;5031271;28;20067;-67
2022/07/22 05:38:32;;;;;;;13.52;6.85;;;;;;;19.95;75.54;95158.75;5019383;28;20095;-68
2022/07/22 05:41:00;;;;;;;16.85;6.75;;;;;;;20.07;75.10;95168.16;5016008;28;20045;-67
2022/07/22 05:43:27;;;;;;;15.55;7.30;;;;;;;20.21;72.60;95166.38;5024164;28;20045;-67
2022/07/22 05:45:54;;;;;;;12.18;6.93;;;;;;;20.34;72.11;95168.31;5023875;28;20069;-67
2022/07/22 05:48:21;;;;;;;15.43;6.95;;;;;;;20.55;73.51;95173.38;5029462;28;20068;-67
2022/07/22 05:50:48;;;;;;;10.82;8.15;;;;;;;20.51;73.90;95167.03;5024669;28;20863;-67
2022/07/22 05:53:16;;;;;;;16.60;7.90;;;;;;;20.58;74.49;95163.00;5039983;28;20127;-67
2022/07/22 05:55:43;;;;;;;13.18;8.15;;;;;;;20.79;71.10;95168.78;5053559;28;20219;-66
2022/07/22 05:58:10;;;;;;;15.05;8.82;;;;;;;20.89;70.65;95172.41;5035865;28;20052;-67
2022/07/22 06:00:37;;;;;;;13.90;9.63;;;;;;;21.04;69.89;95164.19;5057644;28;20849;-67
2022/07/22 06:03:04;;;;;;;17.92;10.40;;;;;;;21.25;68.61;95169.97;5055550;28;20040;-68
2022/07/22 06:05:32;;;;;;;21.90;9.10;;;;;;;21.49;68.91;95169.06;5040928;28;20041;-68
2022/07/22 06:08:06;;;;;;;21.73;9.35;;;;;;;21.66;67.36;95168.50;5037141;28;20055;-67
2022/07/22 06:10:42;;;;;;;16.50;9.02;;;;;;;21.86;67.52;95167.34;5038878;28;20056;-68
2022/07/22 06:13:09;;;;;;;19.80;8.10;;;;;;;21.89;65.99;95167.53;5055283;28;20048;-67
2022/07/22 06:15:38;;;;;;;15.63;9.27;;;;;;;22.08;66.13;95174.63;5045662;28;20052;-67
2022/07/22 06:18:05;;;;;;;16.30;9.02;;;;;;;22.27;65.87;95167.38;5037031;28;20036;-68
2022/07/22 06:20:33;;;;;;;16.67;9.07;;;;;;;22.38;64.80;95172.44;5058094;28;20060;-68
2022/07/22 06:23:00;;;;;;;15.85;9.45;;;;;;;22.33;64.74;95165.41;5034546;28;20044;-66
2022/07/22 06:25:28;;;;;;;15.32;8.43;;;;;;;22.30;65.93;95168.63;5056397;28;20036;-68
2022/07/22 06:28:30;;;;;;;17.00;8.50;;;;;;;22.47;64.05;95160.06;5035274;28;20049;-68
2022/07/22 06:30:56;;;;;;;18.67;8.05;;;;;;;22.59;63.58;95152.34;5039347;28;20048;-68
2022/07/22 06:33:24;;;;;;;24.52;9.40;;;;;;;22.87;64.11;95168.22;5036223;28;20768;-66
2022/07/22 06:35:51;;;;;;;16.20;9.38;;;;;;;23.08;63.63;95164.03;5040390;28;20044;-67
2022/07/22 06:38:18;;;;;;;15.02;8.80;;;;;;;23.35;62.29;95164.97;5039646;28;20040;-67
2022/07/22 06:41:22;;;;;;;15.15;8.00;;;;;;;23.63;60.01;95167.47;5050358;28;20579;-66
2022/07/22 06:44:04;;;;;;;16.58;8.48;;;;;;;23.74;58.79;95165.34;5054338;28;20040;-66
2022/07/22 06:46:43;;;;;;;21.92;9.07;;;;;;;23.79;57.56;95178.50;5039247;28;20695;-66
2022/07/22 06:49:10;;;;;;;13.93;7.78;;;;;;;23.77;57.50;95173.47;5038659;28;20048;-66
2022/07/22 06:51:40;;;;;;;15.73;8.77;;;;;;;23.96;58.65;95169.81;5073870;28;20040;-67
2022/07/22 06:54:07;;;;;;;14.52;7.45;;;;;;;24.00;57.18;95173.44;5042215;28;20063;-69
2022/07/22 06:56:34;;;;;;;12.98;7.72;;;;;;;24.08;55.16;95172.69;5027131;28;20037;-69
2022/07/22 06:59:03;;;;;;;14.98;7.75;;;;;;;24.04;56.30;95155.78;5038953;28;20916;-70
2022/07/22 07:01:30;;;;;;;18.90;7.63;;;;;;;24.02;56.80;95169.38;5069322;28;20039;-67
2022/07/22 07:04:00;;;;;;;19.08;7.13;;;;;;;24.11;57.39;95165.94;5059183;28;20047;-66
2022/07/22 07:06:27;;;;;;;19.00;7.38;;;;;;;24.27;55.77;95168.97;5050901;28;20036;-66
2022/07/22 07:09:08;;;;;;;12.30;7.32;;;;;;;24.41;56.76;95174.97;5037718;28;20090;-66
2022/07/22 08:30:33;;;;;;;9.32;4.47;;;;;;;29.05;37.19;95181.44;5030687;28;20648;-70
2022/07/22 08:33:00;;;;;;;14.18;5.05;;;;;;;29.08;37.60;95154.72;5033835;28;20097;-70
2022/07/22 08:35:27;;;;;;;11.60;4.40;;;;;;;29.53;36.99;95180.47;5057053;28;20079;-72
2022/07/22 08:37:55;;;;;;;16.50;5.03;;;;;;;29.58;36.22;95181.34;5051902;28;20052;-71
2022/07/22 08:40:23;;;;;;;5.93;4.88;;;;;;;29.82;36.18;95186.59;5052154;28;20056;-69
2022/07/22 08:42:51;;;;;;;13.27;4.72;;;;;;;30.12;35.41;95172.72;5034655;28;20045;-70
2022/07/22 08:45:21;;;;;;;6.10;4.43;;;;;;;30.33;35.96;95183.19;5037440;28;20056;-70
2022/07/22 08:47:51;;;;;;;13.60;5.20;;;;;;;30.34;34.73;95175.91;5017664;28;20045;-70
2022/07/22 08:50:24;;;;;;;6.13;4.60;;;;;;;30.41;35.33;95184.13;5049001;28;21063;-70
2022/07/22 08:53:10;;;;;;;11.15;4.70;;;;;;;30.62;34.89;95184.63;5042106;28;20380;-72
2022/07/22 08:55:48;;;;;;;11.15;4.63;;;;;;;30.59;34.73;95174.56;5050770;28;20403;-72
2022/07/22 08:58:17;;;;;;;11.88;4.50;;;;;;;30.31;34.79;95158.56;5059018;28;20069;-72
2022/07/22 09:00:44;;;;;;;5.57;3.97;;;;;;;30.52;34.04;95169.03;5021866;28;20052;-73
2022/07/22 09:03:18;;;;;;;9.85;4.40;;;;;;;30.67;34.11;95186.25;5041408;28;20042;-73
2022/07/22 09:05:47;;;;;;;10.85;4.05;;;;;;;30.84;33.39;95198.50;5053960;28;20049;-72
2022/07/22 09:08:16;;;;;;;6.45;3.80;;;;;;;31.10;33.39;95191.75;5039451;28;20049;-72
2022/07/22 09:11:19;;;;;;;12.40;4.65;;;;;;;31.38;32.60;95189.63;5044106;28;20045;-72
2022/07/22 09:14:05;;;;;;;12.32;4.00;;;;;;;31.12;31.70;95194.91;5036138;28;20102;-73
2022/07/22 09:16:48;;;;;;;8.73;3.90;;;;;;;31.24;32.48;95190.16;5038132;28;20076;-73
2022/07/22 09:19:41;;;;;;;11.88;5.00;;;;;;;30.92;32.60;95192.19;5039825;28;20057;-73
2022/07/22 09:22:34;;;;;;;14.98;4.57;;;;;;;31.30;32.74;95190.63;5042854;28;20187;-72
2022/07/22 09:25:25;;;;;;;14.15;3.72;;;;;;;31.59;31.98;95199.25;5048433;28;20059;-72
2022/07/22 09:28:23;;;;;;;8.40;3.97;;;;;;;31.74;32.01;95195.66;5051352;28;20968;-72
2022/07/22 09:31:33;;;;;;;7.43;4.10;;;;;;;31.93;30.99;95188.69;5036281;28;20710;-72
2022/07/22 09:34:34;;;;;;;8.15;4.00;;;;;;;32.19;30.58;95199.50;5045018;28;20592;-72
2022/07/22 09:37:25;;;;;;;5.13;3.83;;;;;;;32.53;30.78;95194.25;5040156;28;20580;-72
2022/07/22 09:39:51;;;;;;;4.72;3.92;;;;;;;32.92;28.88;95183.25;5060048;28;20144;-69
2022/07/22 09:42:20;;;;;;;6.53;4.43;;;;;;;33.41;29.97;95191.53;5033352;28;20391;-70
2022/07/22 09:44:48;;;;;;;10.88;4.47;;;;;;;33.66;28.18;95198.00;5026777;28;20538;-70
2022/07/22 09:47:35;;;;;;;10.73;3.65;;;;;;;33.50;28.64;95200.13;5041283;28;20038;-69
2022/07/22 09:50:29;;;;;;;5.85;4.40;;;;;;;33.81;27.34;95198.13;5030155;28;20690;-69
2022/07/22 09:53:16;;;;;;;9.43;4.07;;;;;;;34.19;26.67;95188.06;5028823;28;20102;-70
2022/07/22 09:56:03;;;;;;;7.82;4.03;;;;;;;34.32;26.80;95194.69;5014016;28;20053;-70
2022/07/22 09:58:32;;;;;;;6.80;3.78;;;;;;;34.36;26.32;95197.44;5043271;28;20140;-70
2022/07/22 10:01:04;;;;;;;6.50;3.90;;;;;;;34.01;26.40;95194.06;5042172;28;20107;-69
2022/07/22 10:03:36;;;;;;;9.70;4.10;;;;;;;34.31;26.76;95187.00;5043207;28;20053;-69
2022/07/22 10:06:06;;;;;;;5.95;4.28;;;;;;;34.56;25.82;95196.03;5043792;28;20514;-70
2022/07/22 10:08:36;;;;;;;8.77;4.57;;;;;;;34.32;25.58;95200.09;5045081;28;20051;-69
2022/07/22 10:11:06;;;;;;;8.25;3.38;;;;;;;34.52;25.82;95191.75;5042812;28;20115;-70
2022/07/22 10:13:34;;;;;;;6.95;4.10;;;;;;;34.41;26.08;95195.16;5032528;28;20049;-70
2022/07/22 10:16:06;;;;;;;5.60;3.90;;;;;;;34.13;26.12;95182.19;5029171;28;20050;-70
2022/07/22 10:18:34;;;;;;;6.05;3.92;;;;;;;34.35;25.97;95172.31;5027057;28;20116;-70
2022/07/22 10:21:07;;;;;;;4.95;3.65;;;;;;;34.12;26.38;95185.25;5023228;28;20038;-70
2022/07/22 10:23:35;;;;;;;9.73;4.03;;;;;;;34.32;26.43;95178.47;5028832;28;20045;-70
2022/07/22 10:26:04;;;;;;;7.28;3.90;;;;;;;34.65;25.67;95174.06;5026151;28;20052;-71
2022/07/22 10:28:34;;;;;;;5.32;3.58;;;;;;;34.61;25.59;95167.84;5044620;28;20065;-71
2022/07/22 10:31:17;;;;;;;7.93;4.20;;;;;;;34.50;25.05;95167.00;5025295;28;20068;-71
2022/07/22 10:33:48;;;;;;;5.72;3.85;;;;;;;34.60;25.02;95171.72;5028681;28;20042;-71
2022/07/22 10:36:30;;;;;;;6.88;4.03;;;;;;;35.20;24.51;95176.69;5030049;28;20300;-71
2022/07/22 10:39:13;;;;;;;11.30;4.30;;;;;;;35.30;24.14;95174.38;5029839;28;20041;-71
2022/07/22 10:41:43;;;;;;;9.88;4.05;;;;;;;35.00;24.56;95161.88;5031645;28;20402;-71
2022/07/22 10:44:48;;;;;;;6.55;3.90;;;;;;;35.27;25.02;95175.16;5026317;28;20052;-71
2022/07/22 10:47:55;;;;;;;6.88;3.92;;;;;;;35.13;24.94;95176.63;5025156;28;20281;-71
2022/07/22 10:50:35;;;;;;;7.28;4.18;;;;;;;34.57;25.29;95172.47;5026842;28;20077;-71
2022/07/22 10:53:08;;;;;;;6.07;4.13;;;;;;;34.96;24.16;95161.09;5024464;28;20069;-71
2022/07/22 10:55:36;;;;;;;12.18;4.00;;;;;;;35.34;24.59;95167.03;5028890;28;20049;-71
2022/07/22 10:58:52;;;;;;;8.25;4.00;;;;;;;35.42;23.17;95174.81;5042249;28;20055;-71
2022/07/22 11:01:27;;;;;;;5.10;3.38;;;;;;;35.55;22.39;95179.88;5001153;28;20045;-71
2022/07/22 11:03:55;;;;;;;3.60;2.83;;;;;;;36.03;21.92;95173.34;5022786;28;20052;-71
2022/07/22 11:06:29;;;;;;;4.80;2.88;;;;;;;36.47;20.58;95177.59;5024109;28;20049;-72
2022/07/22 11:08:58;;;;;;;6.25;3.10;;;;;;;36.69;20.65;95176.41;5029143;28;20087;-71
2022/07/22 11:11:52;;;;;;;6.72;3.05;;;;;;;36.81;20.65;95174.44;5026366;28;20064;-72
2022/07/22 11:14:26;;;;;;;7.15;3.05;;;;;;;37.17;19.99;95172.38;5026264;28;20063;-72
2022/07/22 11:16:56;;;;;;;9.13;2.90;;;;;;;37.71;19.75;95177.53;5043857;28;20037;-72
2022/07/22 11:19:26;;;;;;;10.27;2.97;;;;;;;37.93;18.74;95188.25;5026995;28;20041;-71
2022/07/22 11:22:04;;;;;;;3.78;2.50;;;;;;;38.10;19.06;95168.31;5041141;28;20486;-71
2022/07/22 11:24:33;;;;;;;4.93;2.78;;;;;;;38.33;18.60;95161.53;5031338;28;20080;-71
2022/07/22 11:27:01;;;;;;;4.90;2.92;;;;;;;38.49;17.66;95161.75;5024570;28;20116;-72
2022/07/22 11:29:46;;;;;;;7.40;3.10;;;;;;;38.53;18.84;95167.91;5027908;28;20080;-72
2022/07/22 11:32:14;;;;;;;4.93;2.55;;;;;;;38.52;18.36;95174.56;5021968;28;20043;-71
2022/07/22 11:34:44;;;;;;;2.85;2.35;;;;;;;38.36;17.82;95174.34;5025846;28;20446;-71
2022/07/22 11:37:19;;;;;;;6.03;2.33;;;;;;;38.29;18.03;95174.41;5028752;28;20052;-71
2022/07/22 11:39:47;;;;;;;4.55;2.53;;;;;;;38.28;17.86;95178.28;5023986;28;20044;-71
2022/07/22 11:42:13;;;;;;;6.20;2.80;;;;;;;38.10;18.76;95173.75;5028374;28;20055;-71
2022/07/22 11:44:40;;;;;;;4.80;2.85;;;;;;;38.48;19.19;95179.25;5039152;28;20046;-72
2022/07/22 11:47:08;;;;;;;8.77;3.10;;;;;;;38.71;19.32;95169.72;5028143;28;20044;-71
2022/07/22 11:49:37;;;;;;;11.20;2.97;;;;;;;38.63;19.65;95183.41;5029504;28;20057;-71
2022/07/22 11:52:09;;;;;;;5.90;3.22;;;;;;;38.72;19.05;95180.19;5023330;28;20045;-71
2022/07/22 11:54:36;;;;;;;3.75;2.58;;;;;;;38.77;18.22;95176.25;5025346;28;20041;-71
2022/07/22 11:57:03;;;;;;;6.57;2.88;;;;;;;38.52;18.30;95188.16;5028242;28;20056;-71
2022/07/22 11:59:30;;;;;;;9.68;2.88;;;;;;;38.07;18.00;95177.28;5024666;28;20037;-71
2022/07/22 12:01:57;;;;;;;6.50;2.65;;;;;;;37.94;18.04;95178.91;5024680;28;20034;-71
2022/07/22 12:04:26;;;;;;;7.32;3.20;;;;;;;38.10;16.94;95178.44;5023366;28;20096;-72
2022/07/22 12:06:57;;;;;;;3.45;2.58;;;;;;;38.48;17.22;95165.63;5026921;28;20048;-72
2022/07/22 12:09:26;;;;;;;5.85;2.75;;;;;;;39.12;16.73;95179.78;5034022;28;20046;-72
2022/07/22 12:11:57;;;;;;;5.30;2.45;;;;;;;39.48;16.08;95173.88;5006482;28;20055;-71
2022/07/22 12:14:28;;;;;;;8.05;3.08;;;;;;;39.51;16.18;95184.72;5020361;28;20537;-71
2022/07/22 12:17:01;;;;;;;6.15;3.58;;;;;;;39.92;15.67;95181.03;5025272;28;20447;-72
2022/07/22 12:19:32;;;;;;;6.57;2.80;;;;;;;39.90;17.25;95171.69;5023396;28;20124;-74
2022/07/22 12:22:02;;;;;;;5.30;2.70;;;;;;;40.04;16.77;95176.94;5029307;28;20060;-75
2022/07/22 12:24:40;;;;;;;5.73;3.00;;;;;;;40.02;17.57;95168.41;5039625;28;20041;-68
2022/07/22 12:27:15;;;;;;;4.00;2.45;;;;;;;40.49;17.37;95173.09;5024625;28;20433;-76
2022/07/22 12:29:46;;;;;;;5.10;3.47;;;;;;;40.64;16.84;95165.41;5024283;28;20056;-78
2022/07/22 12:32:21;;;;;;;3.22;2.92;;;;;;;40.25;17.87;95175.06;5020505;28;20073;-70
2022/07/22 12:34:55;;;;;;;8.45;2.97;;;;;;;40.29;17.97;95175.75;5021963;28;20045;-78
2022/07/22 12:37:30;;;;;;;5.78;2.85;;;;;;;40.50;17.19;95167.22;5025580;28;20044;-77
2022/07/22 12:40:08;;;;;;;4.43;2.42;;;;;;;40.65;16.87;95169.69;5038085;28;20046;-77
2022/07/22 12:42:41;;;;;;;6.15;3.50;;;;;;;40.75;17.54;95157.81;5036096;28;20679;-78
2022/07/22 12:45:17;;;;;;;6.30;2.55;;;;;;;40.80;17.78;95165.50;5023353;28;20072;-75
2022/07/22 12:48:09;;;;;;;5.35;2.70;;;;;;;41.16;16.64;95164.78;5022761;28;20583;-76
2022/07/22 12:50:55;;;;;;;6.25;3.15;;;;;;;41.12;17.38;95169.56;5039041;28;20465;-78
2022/07/22 12:53:24;;;;;;;5.10;3.38;;;;;;;40.60;16.59;95168.19;5025316;28;20144;-75
2022/07/22 12:55:55;;;;;;;7.53;2.97;;;;;;;40.36;17.98;95172.94;5039275;28;20045;-75
2022/07/22 12:58:28;;;;;;;3.90;2.60;;;;;;;40.58;17.82;95167.09;5024174;28;20049;-69
2022/07/22 13:00:58;;;;;;;3.55;2.53;;;;;;;40.49;17.35;95173.84;5030133;28;20042;-68
2022/07/22 13:03:26;;;;;;;6.15;3.03;;;;;;;40.63;15.91;95172.06;5031851;28;20060;-70
2022/07/22 13:05:56;;;;;;;4.75;3.03;;;;;;;41.17;15.53;95171.78;5024806;28;20045;-75
2022/07/22 13:08:25;;;;;;;5.90;2.70;;;;;;;41.36;15.69;95150.34;5040083;28;20045;-76